sensor_id;sensor_type;location;lat;lon;timestamp;temperature;humidity
52941;DHT22;62001;53.366;6.636;2023-04-03T00:01:10;1.60;99.90
52941;DHT22;62001;53.366;6.636;2023-04-03T00:03:36;1.60;99.90
52941;DHT22;62001;53.366;6.636;2023-04-03T00:06:03;1.60;99.90
52941;DHT22;62001;53.366;6.636;2023-04-03T00:08:29;1.60;99.90
52941;DHT22;62001;53.366;6.636;2023-04-03T00:10:58;1.70;99.90
52941;DHT22;62001;53.366;6.636;2023-04-03T00:13:24;1.70;99.90
52941;DHT22;62001;53.366;6.636;2023-04-03T00:15:51;1.70;99.90
52941;DHT22;62001;53.366;6.636;2023-04-03T00:18:17;1.70;99.90
52941;DHT22;62001;53.366;6.636;2023-04-03T00:20:43;1.70;99.90
52941;DHT22;62001;53.366;6.636;2023-04-03T00:23:09;1.70;99.90
52941;DHT22;62001;53.366;6.636;2023-04-03T00:25:36;1.70;99.90
52941;DHT22;62001;53.366;6.636;2023-04-03T00:28:03;1.70;99.90
52941;DHT22;62001;53.366;6.636;2023-04-03T00:30:29;1.70;99.90
52941;DHT22;62001;53.366;6.636;2023-04-03T00:32:55;1.70;99.90
52941;DHT22;62001;53.366;6.636;2023-04-03T00:35:22;1.60;99.90
52941;DHT22;62001;53.366;6.636;2023-04-03T00:37:50;1.60;99.90
52941;DHT22;62001;53.366;6.636;2023-04-03T00:40:16;1.60;99.90
52941;DHT22;62001;53.366;6.636;2023-04-03T00:42:43;1.60;99.90
52941;DHT22;62001;53.366;6.636;2023-04-03T00:45:27;1.60;99.90
52941;DHT22;62001;53.366;6.636;2023-04-03T00:47:54;1.50;99.90
52941;DHT22;62001;53.366;6.636;2023-04-03T00:50:21;1.50;99.90
52941;DHT22;62001;53.366;6.636;2023-04-03T00:52:47;1.50;99.90
52941;DHT22;62001;53.366;6.636;2023-04-03T00:55:15;1.50;99.90
52941;DHT22;62001;53.366;6.636;2023-04-03T00:57:42;1.40;99.90
52941;DHT22;62001;53.366;6.636;2023-04-03T01:00:13;1.40;99.90
52941;DHT22;62001;53.366;6.636;2023-04-03T01:02:40;1.40;99.90
52941;DHT22;62001;53.366;6.636;2023-04-03T01:05:09;1.30;99.90
52941;DHT22;62001;53.366;6.636;2023-04-03T01:07:35;1.30;99.90
52941;DHT22;62001;53.366;6.636;2023-04-03T01:10:08;1.30;99.90
52941;DHT22;62001;53.366;6.636;2023-04-03T01:12:39;1.30;99.90
52941;DHT22;62001;53.366;6.636;2023-04-03T01:15:06;1.30;99.90
52941;DHT22;62001;53.366;6.636;2023-04-03T01:17:36;1.20;99.90
52941;DHT22;62001;53.366;6.636;2023-04-03T01:25:34;1.10;99.90
52941;DHT22;62001;53.366;6.636;2023-04-03T01:28:03;1.00;99.90
52941;DHT22;62001;53.366;6.636;2023-04-03T01:30:35;1.00;99.90
52941;DHT22;62001;53.366;6.636;2023-04-03T01:33:02;1.00;99.90
52941;DHT22;62001;53.366;6.636;2023-04-03T01:35:28;0.90;99.90
52941;DHT22;62001;53.366;6.636;2023-04-03T01:37:54;0.90;99.90
52941;DHT22;62001;53.366;6.636;2023-04-03T01:40:20;0.80;99.90
52941;DHT22;62001;53.366;6.636;2023-04-03T01:42:45;0.80;99.90
52941;DHT22;62001;53.366;6.636;2023-04-03T01:45:11;0.70;99.90
52941;DHT22;62001;53.366;6.636;2023-04-03T01:47:37;0.70;99.90
52941;DHT22;62001;53.366;6.636;2023-04-03T01:50:03;0.70;99.90
52941;DHT22;62001;53.366;6.636;2023-04-03T01:52:29;0.60;99.90
52941;DHT22;62001;53.366;6.636;2023-04-03T01:54:55;0.60;99.90
52941;DHT22;62001;53.366;6.636;2023-04-03T01:57:21;0.60;99.90
52941;DHT22;62001;53.366;6.636;2023-04-03T01:59:47;0.50;99.90
52941;DHT22;62001;53.366;6.636;2023-04-03T02:02:13;0.50;99.90
52941;DHT22;62001;53.366;6.636;2023-04-03T02:04:40;0.40;99.90
52941;DHT22;62001;53.366;6.636;2023-04-03T02:07:06;0.30;99.90
52941;DHT22;62001;53.366;6.636;2023-04-03T02:09:33;0.20;99.90
52941;DHT22;62001;53.366;6.636;2023-04-03T02:11:58;0.20;99.90
52941;DHT22;62001;53.366;6.636;2023-04-03T02:14:24;0.00;99.90
52941;DHT22;62001;53.366;6.636;2023-04-03T02:16:52;0.00;99.90
52941;DHT22;62001;53.366;6.636;2023-04-03T02:19:18;-0.10;99.90
52941;DHT22;62001;53.366;6.636;2023-04-03T02:21:44;-0.10;99.90
52941;DHT22;62001;53.366;6.636;2023-04-03T02:24:10;-0.20;99.90
52941;DHT22;62001;53.366;6.636;2023-04-03T02:26:36;-0.20;99.90
52941;DHT22;62001;53.366;6.636;2023-04-03T02:29:02;-0.30;99.90
52941;DHT22;62001;53.366;6.636;2023-04-03T02:31:28;-0.30;99.90
52941;DHT22;62001;53.366;6.636;2023-04-03T02:33:54;-0.40;99.90
52941;DHT22;62001;53.366;6.636;2023-04-03T02:36:20;-0.40;99.90
52941;DHT22;62001;53.366;6.636;2023-04-03T02:38:46;-0.40;99.90
52941;DHT22;62001;53.366;6.636;2023-04-03T02:41:12;-0.50;99.90
52941;DHT22;62001;53.366;6.636;2023-04-03T02:43:38;-0.50;99.90
52941;DHT22;62001;53.366;6.636;2023-04-03T02:46:05;-0.60;99.90
52941;DHT22;62001;53.366;6.636;2023-04-03T02:48:31;-0.60;99.90
52941;DHT22;62001;53.366;6.636;2023-04-03T02:50:57;-0.60;99.90
52941;DHT22;62001;53.366;6.636;2023-04-03T02:53:23;-0.60;99.90
52941;DHT22;62001;53.366;6.636;2023-04-03T02:55:49;-0.60;99.90
52941;DHT22;62001;53.366;6.636;2023-04-03T02:58:15;-0.60;99.90
52941;DHT22;62001;53.366;6.636;2023-04-03T03:00:41;-0.60;99.90
52941;DHT22;62001;53.366;6.636;2023-04-03T03:03:07;-0.70;99.90
52941;DHT22;62001;53.366;6.636;2023-04-03T03:05:33;-0.80;99.90
52941;DHT22;62001;53.366;6.636;2023-04-03T03:07:59;-0.80;99.90
52941;DHT22;62001;53.366;6.636;2023-04-03T03:10:25;-0.90;99.90
52941;DHT22;62001;53.366;6.636;2023-04-03T03:12:52;-0.90;99.90
52941;DHT22;62001;53.366;6.636;2023-04-03T03:15:18;-1.00;99.90
52941;DHT22;62001;53.366;6.636;2023-04-03T03:17:45;-1.10;99.90
52941;DHT22;62001;53.366;6.636;2023-04-03T03:20:11;-1.10;99.90
52941;DHT22;62001;53.366;6.636;2023-04-03T03:22:39;-1.20;99.90
52941;DHT22;62001;53.366;6.636;2023-04-03T03:25:05;-1.20;99.90
52941;DHT22;62001;53.366;6.636;2023-04-03T03:27:31;-1.30;99.90
52941;DHT22;62001;53.366;6.636;2023-04-03T03:29:57;-1.40;99.90
52941;DHT22;62001;53.366;6.636;2023-04-03T03:32:23;-1.40;99.90
52941;DHT22;62001;53.366;6.636;2023-04-03T03:34:49;-1.50;99.90
52941;DHT22;62001;53.366;6.636;2023-04-03T03:37:15;-1.60;99.90
52941;DHT22;62001;53.366;6.636;2023-04-03T03:39:41;-1.70;99.90
52941;DHT22;62001;53.366;6.636;2023-04-03T03:42:06;-1.70;99.90
52941;DHT22;62001;53.366;6.636;2023-04-03T03:44:32;-1.70;99.90
52941;DHT22;62001;53.366;6.636;2023-04-03T03:46:58;-1.80;99.90
52941;DHT22;62001;53.366;6.636;2023-04-03T03:49:24;-1.80;99.90
52941;DHT22;62001;53.366;6.636;2023-04-03T03:51:50;-1.80;99.90
52941;DHT22;62001;53.366;6.636;2023-04-03T03:54:16;-1.80;99.90
52941;DHT22;62001;53.366;6.636;2023-04-03T03:56:42;-1.90;99.90
52941;DHT22;62001;53.366;6.636;2023-04-03T03:59:08;-1.90;99.90
52941;DHT22;62001;53.366;6.636;2023-04-03T04:01:33;-1.90;99.90
52941;DHT22;62001;53.366;6.636;2023-04-03T04:03:59;-2.00;99.90
52941;DHT22;62001;53.366;6.636;2023-04-03T04:06:25;-2.00;99.90
52941;DHT22;62001;53.366;6.636;2023-04-03T04:08:51;-2.10;99.90
52941;DHT22;62001;53.366;6.636;2023-04-03T04:11:17;-2.10;99.90
52941;DHT22;62001;53.366;6.636;2023-04-03T04:13:44;-2.20;99.90
52941;DHT22;62001;53.366;6.636;2023-04-03T04:16:10;-2.10;99.90
52941;DHT22;62001;53.366;6.636;2023-04-03T04:18:35;-2.10;99.90
52941;DHT22;62001;53.366;6.636;2023-04-03T04:21:02;-2.00;99.90
52941;DHT22;62001;53.366;6.636;2023-04-03T04:23:27;-1.90;99.90
52941;DHT22;62001;53.366;6.636;2023-04-03T04:25:53;-1.80;99.90
52941;DHT22;62001;53.366;6.636;2023-04-03T04:28:19;-1.70;99.90
52941;DHT22;62001;53.366;6.636;2023-04-03T04:30:45;-1.60;99.90
52941;DHT22;62001;53.366;6.636;2023-04-03T04:33:11;-1.50;99.90
52941;DHT22;62001;53.366;6.636;2023-04-03T04:35:37;-1.50;99.90
52941;DHT22;62001;53.366;6.636;2023-04-03T04:38:03;-1.40;99.90
52941;DHT22;62001;53.366;6.636;2023-04-03T04:40:30;-1.40;99.90
52941;DHT22;62001;53.366;6.636;2023-04-03T04:42:55;-1.40;99.90
52941;DHT22;62001;53.366;6.636;2023-04-03T04:45:21;-1.30;99.90
52941;DHT22;62001;53.366;6.636;2023-04-03T04:47:47;-1.40;99.90
52941;DHT22;62001;53.366;6.636;2023-04-03T04:50:13;-1.40;99.90
52941;DHT22;62001;53.366;6.636;2023-04-03T04:52:39;-1.60;99.90
52941;DHT22;62001;53.366;6.636;2023-04-03T04:55:05;-1.60;99.90
52941;DHT22;62001;53.366;6.636;2023-04-03T04:57:31;-1.70;99.90
52941;DHT22;62001;53.366;6.636;2023-04-03T04:59:57;-1.80;99.90
52941;DHT22;62001;53.366;6.636;2023-04-03T05:02:23;-1.80;99.90
52941;DHT22;62001;53.366;6.636;2023-04-03T05:04:48;-1.90;99.90
52941;DHT22;62001;53.366;6.636;2023-04-03T05:07:16;-1.90;99.90
52941;DHT22;62001;53.366;6.636;2023-04-03T05:09:41;-1.90;99.90
52941;DHT22;62001;53.366;6.636;2023-04-03T05:12:08;-1.90;99.90
52941;DHT22;62001;53.366;6.636;2023-04-03T05:14:33;-1.90;99.90
52941;DHT22;62001;53.366;6.636;2023-04-03T05:16:59;-1.90;99.90
52941;DHT22;62001;53.366;6.636;2023-04-03T05:19:25;-1.80;99.90
52941;DHT22;62001;53.366;6.636;2023-04-03T05:21:51;-1.70;99.90
52941;DHT22;62001;53.366;6.636;2023-04-03T05:24:17;-1.70;99.90
52941;DHT22;62001;53.366;6.636;2023-04-03T05:26:43;-1.80;99.90
52941;DHT22;62001;53.366;6.636;2023-04-03T05:29:09;-1.70;99.90
52941;DHT22;62001;53.366;6.636;2023-04-03T05:31:35;-1.60;99.90
52941;DHT22;62001;53.366;6.636;2023-04-03T05:34:02;-1.40;99.90
52941;DHT22;62001;53.366;6.636;2023-04-03T05:36:28;-1.00;99.90
52941;DHT22;62001;53.366;6.636;2023-04-03T05:38:54;-0.50;99.90
52941;DHT22;62001;53.366;6.636;2023-04-03T05:41:22;-0.20;99.90
52941;DHT22;62001;53.366;6.636;2023-04-03T05:43:48;0.10;99.90
52941;DHT22;62001;53.366;6.636;2023-04-03T05:46:16;0.30;99.90
52941;DHT22;62001;53.366;6.636;2023-04-03T05:48:43;0.50;99.90
52941;DHT22;62001;53.366;6.636;2023-04-03T05:51:17;0.70;99.90
52941;DHT22;62001;53.366;6.636;2023-04-03T05:53:44;0.90;99.90
52941;DHT22;62001;53.366;6.636;2023-04-03T05:56:11;1.40;99.90
52941;DHT22;62001;53.366;6.636;2023-04-03T05:58:37;1.90;99.90
52941;DHT22;62001;53.366;6.636;2023-04-03T06:01:03;2.40;99.90
52941;DHT22;62001;53.366;6.636;2023-04-03T06:03:29;2.60;99.90
52941;DHT22;62001;53.366;6.636;2023-04-03T06:05:55;2.60;99.90
52941;DHT22;62001;53.366;6.636;2023-04-03T06:08:20;2.50;99.90
52941;DHT22;62001;53.366;6.636;2023-04-03T06:10:46;2.60;99.90
52941;DHT22;62001;53.366;6.636;2023-04-03T06:13:13;2.80;99.90
52941;DHT22;62001;53.366;6.636;2023-04-03T06:15:39;3.20;99.90
52941;DHT22;62001;53.366;6.636;2023-04-03T06:18:06;3.40;99.90
52941;DHT22;62001;53.366;6.636;2023-04-03T06:20:32;3.40;99.90
52941;DHT22;62001;53.366;6.636;2023-04-03T06:22:58;3.40;99.90
52941;DHT22;62001;53.366;6.636;2023-04-03T06:25:24;3.40;99.90
52941;DHT22;62001;53.366;6.636;2023-04-03T06:27:49;3.60;99.90
52941;DHT22;62001;53.366;6.636;2023-04-03T06:30:15;3.90;99.90
52941;DHT22;62001;53.366;6.636;2023-04-03T06:32:41;4.00;99.90
52941;DHT22;62001;53.366;6.636;2023-04-03T06:35:08;4.00;99.90
52941;DHT22;62001;53.366;6.636;2023-04-03T06:37:34;3.90;99.90
52941;DHT22;62001;53.366;6.636;2023-04-03T06:40:00;3.90;99.90
52941;DHT22;62001;53.366;6.636;2023-04-03T06:42:26;4.00;99.90
52941;DHT22;62001;53.366;6.636;2023-04-03T06:44:52;4.10;99.90
52941;DHT22;62001;53.366;6.636;2023-04-03T06:47:18;4.20;99.90
52941;DHT22;62001;53.366;6.636;2023-04-03T06:49:45;4.30;99.90
52941;DHT22;62001;53.366;6.636;2023-04-03T06:52:11;4.70;99.90
52941;DHT22;62001;53.366;6.636;2023-04-03T06:54:38;5.40;99.90
52941;DHT22;62001;53.366;6.636;2023-04-03T06:57:04;6.40;99.90
52941;DHT22;62001;53.366;6.636;2023-04-03T06:59:30;7.70;99.90
52941;DHT22;62001;53.366;6.636;2023-04-03T07:01:56;8.80;99.90
52941;DHT22;62001;53.366;6.636;2023-04-03T07:04:22;9.50;99.90
52941;DHT22;62001;53.366;6.636;2023-04-03T07:06:48;9.80;99.90
52941;DHT22;62001;53.366;6.636;2023-04-03T07:09:14;9.90;99.90
52941;DHT22;62001;53.366;6.636;2023-04-03T07:11:41;10.30;99.90
52941;DHT22;62001;53.366;6.636;2023-04-03T07:14:07;10.90;99.90
52941;DHT22;62001;53.366;6.636;2023-04-03T07:16:34;11.30;99.90
52941;DHT22;62001;53.366;6.636;2023-04-03T07:19:01;11.40;99.90
52941;DHT22;62001;53.366;6.636;2023-04-03T07:21:28;11.80;99.90
52941;DHT22;62001;53.366;6.636;2023-04-03T07:23:55;12.20;99.90
52941;DHT22;62001;53.366;6.636;2023-04-03T07:26:21;12.70;99.90
52941;DHT22;62001;53.366;6.636;2023-04-03T07:28:48;13.20;99.90
52941;DHT22;62001;53.366;6.636;2023-04-03T07:31:15;13.90;99.90
52941;DHT22;62001;53.366;6.636;2023-04-03T07:33:43;14.30;98.40
52941;DHT22;62001;53.366;6.636;2023-04-03T07:36:15;14.20;96.00
52941;DHT22;62001;53.366;6.636;2023-04-03T07:38:41;14.20;95.00
52941;DHT22;62001;53.366;6.636;2023-04-03T07:41:14;14.10;92.40
52941;DHT22;62001;53.366;6.636;2023-04-03T07:43:40;14.00;91.60
52941;DHT22;62001;53.366;6.636;2023-04-03T07:46:07;13.90;90.10
52941;DHT22;62001;53.366;6.636;2023-04-03T07:48:33;13.60;87.20
52941;DHT22;62001;53.366;6.636;2023-04-03T07:51:01;13.50;84.60
52941;DHT22;62001;53.366;6.636;2023-04-03T07:53:28;13.20;81.00
52941;DHT22;62001;53.366;6.636;2023-04-03T07:55:54;13.00;80.50
52941;DHT22;62001;53.366;6.636;2023-04-03T07:58:22;13.00;80.00
52941;DHT22;62001;53.366;6.636;2023-04-03T08:00:48;13.00;77.90
52941;DHT22;62001;53.366;6.636;2023-04-03T08:03:14;12.90;78.00
52941;DHT22;62001;53.366;6.636;2023-04-03T08:05:43;12.70;76.20
52941;DHT22;62001;53.366;6.636;2023-04-03T08:08:11;12.40;76.00
52941;DHT22;62001;53.366;6.636;2023-04-03T08:10:38;12.50;76.30
52941;DHT22;62001;53.366;6.636;2023-04-03T08:13:04;12.60;75.70
52941;DHT22;62001;53.366;6.636;2023-04-03T08:15:31;12.20;75.20
52941;DHT22;62001;53.366;6.636;2023-04-03T08:17:57;11.20;75.70
52941;DHT22;62001;53.366;6.636;2023-04-03T08:20:23;10.70;79.90
52941;DHT22;62001;53.366;6.636;2023-04-03T08:22:50;10.80;81.00
52941;DHT22;62001;53.366;6.636;2023-04-03T08:25:16;11.20;80.90
52941;DHT22;62001;53.366;6.636;2023-04-03T08:27:43;11.40;78.70
52941;DHT22;62001;53.366;6.636;2023-04-03T08:30:09;11.50;79.30
52941;DHT22;62001;53.366;6.636;2023-04-03T08:32:36;12.10;79.30
52941;DHT22;62001;53.366;6.636;2023-04-03T08:35:03;12.70;78.50
52941;DHT22;62001;53.366;6.636;2023-04-03T08:37:29;13.10;76.00
52941;DHT22;62001;53.366;6.636;2023-04-03T08:39:54;13.00;73.20
52941;DHT22;62001;53.366;6.636;2023-04-03T08:48:03;11.50;72.80
52941;DHT22;62001;53.366;6.636;2023-04-03T08:50:36;10.70;71.70
52941;DHT22;62001;53.366;6.636;2023-04-03T08:53:03;9.80;73.50
52941;DHT22;62001;53.366;6.636;2023-04-03T08:55:40;9.20;76.30
52941;DHT22;62001;53.366;6.636;2023-04-03T08:58:17;8.80;77.10
52941;DHT22;62001;53.366;6.636;2023-04-03T09:00:48;8.50;79.70
52941;DHT22;62001;53.366;6.636;2023-04-03T09:03:17;8.40;82.70
52941;DHT22;62001;53.366;6.636;2023-04-03T09:11:16;8.30;84.50
52941;DHT22;62001;53.366;6.636;2023-04-03T09:13:54;8.30;86.40
52941;DHT22;62001;53.366;6.636;2023-04-03T09:24:38;9.40;82.50
52941;DHT22;62001;53.366;6.636;2023-04-03T09:27:06;9.20;80.90
52941;DHT22;62001;53.366;6.636;2023-04-03T09:29:40;9.00;82.60
52941;DHT22;62001;53.366;6.636;2023-04-03T09:34:53;9.90;84.20
52941;DHT22;62001;53.366;6.636;2023-04-03T09:40:04;9.50;84.70
52941;DHT22;62001;53.366;6.636;2023-04-03T09:42:32;9.40;86.80
52941;DHT22;62001;53.366;6.636;2023-04-03T09:45:04;9.50;85.90
52941;DHT22;62001;53.366;6.636;2023-04-03T09:47:34;10.00;86.30
52941;DHT22;62001;53.366;6.636;2023-04-03T09:52:40;11.00;82.80
52941;DHT22;62001;53.366;6.636;2023-04-03T09:55:14;11.10;79.50
52941;DHT22;62001;53.366;6.636;2023-04-03T09:57:40;11.40;75.60
52941;DHT22;62001;53.366;6.636;2023-04-03T10:00:21;11.60;73.10
52941;DHT22;62001;53.366;6.636;2023-04-03T10:02:51;11.50;70.80
52941;DHT22;62001;53.366;6.636;2023-04-03T10:11:04;11.40;69.80
52941;DHT22;62001;53.366;6.636;2023-04-03T10:13:26;11.10;69.30
52941;DHT22;62001;53.366;6.636;2023-04-03T10:18:44;11.20;67.70
52941;DHT22;62001;53.366;6.636;2023-04-03T10:30:34;12.30;66.80
52941;DHT22;62001;53.366;6.636;2023-04-03T10:33:27;12.60;66.20
52941;DHT22;62001;53.366;6.636;2023-04-03T10:44:22;10.70;68.70
52941;DHT22;62001;53.366;6.636;2023-04-03T10:55:53;9.80;68.40
52941;DHT22;62001;53.366;6.636;2023-04-03T10:58:32;9.70;67.50
52941;DHT22;62001;53.366;6.636;2023-04-03T11:01:06;9.80;67.50
52941;DHT22;62001;53.366;6.636;2023-04-03T11:03:36;9.70;67.30
52941;DHT22;62001;53.366;6.636;2023-04-03T11:06:08;9.70;69.00
52941;DHT22;62001;53.366;6.636;2023-04-03T11:08:41;9.70;68.60
52941;DHT22;62001;53.366;6.636;2023-04-03T11:11:21;9.70;68.90
52941;DHT22;62001;53.366;6.636;2023-04-03T11:13:56;9.80;69.90
52941;DHT22;62001;53.366;6.636;2023-04-03T11:16:33;9.90;68.90
52941;DHT22;62001;53.366;6.636;2023-04-03T11:20:08;9.90;67.90
52941;DHT22;62001;53.366;6.636;2023-04-03T11:22:26;9.80;68.00
52941;DHT22;62001;53.366;6.636;2023-04-03T11:25:21;9.70;67.20
52941;DHT22;62001;53.366;6.636;2023-04-03T11:27:59;9.50;67.60
52941;DHT22;62001;53.366;6.636;2023-04-03T11:30:34;9.30;68.70
52941;DHT22;62001;53.366;6.636;2023-04-03T11:36:10;9.30;70.40
52941;DHT22;62001;53.366;6.636;2023-04-03T11:38:42;9.30;70.60
52941;DHT22;62001;53.366;6.636;2023-04-03T11:41:10;9.40;70.50
52941;DHT22;62001;53.366;6.636;2023-04-03T11:43:57;9.60;69.90
52941;DHT22;62001;53.366;6.636;2023-04-03T11:46:49;9.40;67.50
52941;DHT22;62001;53.366;6.636;2023-04-03T12:00:48;9.50;71.10
52941;DHT22;62001;53.366;6.636;2023-04-03T12:05:49;9.50;71.80
52941;DHT22;62001;53.366;6.636;2023-04-03T12:16:23;9.70;73.10
52941;DHT22;62001;53.366;6.636;2023-04-03T12:21:21;9.60;70.80
52941;DHT22;62001;53.366;6.636;2023-04-03T12:26:44;9.50;71.30
52941;DHT22;62001;53.366;6.636;2023-04-03T12:45:23;9.80;73.30
52941;DHT22;62001;53.366;6.636;2023-04-03T12:47:52;9.90;73.70
52941;DHT22;62001;53.366;6.636;2023-04-03T12:50:29;10.00;75.30
52941;DHT22;62001;53.366;6.636;2023-04-03T12:53:11;10.00;73.30
52941;DHT22;62001;53.366;6.636;2023-04-03T12:55:39;9.80;75.80
52941;DHT22;62001;53.366;6.636;2023-04-03T12:58:24;9.40;78.30
52941;DHT22;62001;53.366;6.636;2023-04-03T13:01:08;9.30;80.40
52941;DHT22;62001;53.366;6.636;2023-04-03T13:03:42;9.00;80.30
52941;DHT22;62001;53.366;6.636;2023-04-03T13:06:22;8.90;83.00
52941;DHT22;62001;53.366;6.636;2023-04-03T13:11:18;9.00;82.70
52941;DHT22;62001;53.366;6.636;2023-04-03T13:14:16;9.00;84.20
52941;DHT22;62001;53.366;6.636;2023-04-03T13:17:14;9.00;84.20
52941;DHT22;62001;53.366;6.636;2023-04-03T13:19:39;9.00;83.60
52941;DHT22;62001;53.366;6.636;2023-04-03T13:22:35;9.00;85.80
52941;DHT22;62001;53.366;6.636;2023-04-03T13:25:07;9.00;79.10
52941;DHT22;62001;53.366;6.636;2023-04-03T13:27:34;8.90;84.90
52941;DHT22;62001;53.366;6.636;2023-04-03T13:30:02;8.70;83.80
52941;DHT22;62001;53.366;6.636;2023-04-03T13:32:31;8.70;84.30
52941;DHT22;62001;53.366;6.636;2023-04-03T13:34:57;8.70;87.80
52941;DHT22;62001;53.366;6.636;2023-04-03T13:37:32;8.70;89.40
52941;DHT22;62001;53.366;6.636;2023-04-03T13:40:04;8.60;90.60
52941;DHT22;62001;53.366;6.636;2023-04-03T13:42:40;8.60;91.50
52941;DHT22;62001;53.366;6.636;2023-04-03T13:47:40;8.50;92.60
52941;DHT22;62001;53.366;6.636;2023-04-03T13:52:51;8.50;94.40
52941;DHT22;62001;53.366;6.636;2023-04-03T14:00:33;8.30;94.00
52941;DHT22;62001;53.366;6.636;2023-04-03T14:02:59;8.30;93.80
52941;DHT22;62001;53.366;6.636;2023-04-03T14:05:25;8.30;93.50
52941;DHT22;62001;53.366;6.636;2023-04-03T14:07:54;8.40;95.40
52941;DHT22;62001;53.366;6.636;2023-04-03T14:10:20;8.40;96.50
52941;DHT22;62001;53.366;6.636;2023-04-03T14:12:47;8.30;96.70
52941;DHT22;62001;53.366;6.636;2023-04-03T14:17:45;8.30;97.20
52941;DHT22;62001;53.366;6.636;2023-04-03T14:20:16;8.30;96.50
52941;DHT22;62001;53.366;6.636;2023-04-03T14:22:42;8.30;95.50
52941;DHT22;62001;53.366;6.636;2023-04-03T14:25:09;8.30;95.80
52941;DHT22;62001;53.366;6.636;2023-04-03T14:27:41;8.40;95.50
52941;DHT22;62001;53.366;6.636;2023-04-03T14:30:12;8.40;95.50
52941;DHT22;62001;53.366;6.636;2023-04-03T14:32:39;8.40;94.50
52941;DHT22;62001;53.366;6.636;2023-04-03T14:35:05;8.50;94.20
52941;DHT22;62001;53.366;6.636;2023-04-03T14:37:33;8.40;92.60
52941;DHT22;62001;53.366;6.636;2023-04-03T14:40:00;8.30;93.00
52941;DHT22;62001;53.366;6.636;2023-04-03T14:42:30;8.30;92.10
52941;DHT22;62001;53.366;6.636;2023-04-03T14:44:57;8.30;92.20
52941;DHT22;62001;53.366;6.636;2023-04-03T14:47:26;8.30;91.80
52941;DHT22;62001;53.366;6.636;2023-04-03T14:49:53;8.40;91.00
52941;DHT22;62001;53.366;6.636;2023-04-03T14:52:25;8.40;90.50
52941;DHT22;62001;53.366;6.636;2023-04-03T14:54:52;8.40;90.70
52941;DHT22;62001;53.366;6.636;2023-04-03T14:57:19;8.40;90.20
52941;DHT22;62001;53.366;6.636;2023-04-03T14:59:47;8.40;89.00
52941;DHT22;62001;53.366;6.636;2023-04-03T15:02:31;8.30;88.10
52941;DHT22;62001;53.366;6.636;2023-04-03T15:04:58;8.30;86.50
52941;DHT22;62001;53.366;6.636;2023-04-03T15:07:27;8.20;88.10
52941;DHT22;62001;53.366;6.636;2023-04-03T15:09:53;8.20;89.70
52941;DHT22;62001;53.366;6.636;2023-04-03T15:12:24;8.10;91.10
52941;DHT22;62001;53.366;6.636;2023-04-03T15:14:50;8.10;89.10
52941;DHT22;62001;53.366;6.636;2023-04-03T15:17:19;8.10;89.30
52941;DHT22;62001;53.366;6.636;2023-04-03T15:19:47;8.00;88.50
52941;DHT22;62001;53.366;6.636;2023-04-03T15:22:19;8.00;90.30
52941;DHT22;62001;53.366;6.636;2023-04-03T15:24:45;7.90;93.50
52941;DHT22;62001;53.366;6.636;2023-04-03T15:27:12;8.00;93.20
52941;DHT22;62001;53.366;6.636;2023-04-03T15:29:39;7.90;94.30
52941;DHT22;62001;53.366;6.636;2023-04-03T15:32:06;7.90;93.30
52941;DHT22;62001;53.366;6.636;2023-04-03T15:34:32;7.90;92.40
52941;DHT22;62001;53.366;6.636;2023-04-03T15:36:58;7.90;93.80
52941;DHT22;62001;53.366;6.636;2023-04-03T15:39:27;7.80;96.10
52941;DHT22;62001;53.366;6.636;2023-04-03T15:41:53;7.80;95.80
52941;DHT22;62001;53.366;6.636;2023-04-03T15:44:20;7.70;95.50
52941;DHT22;62001;53.366;6.636;2023-04-03T15:46:47;7.70;96.30
52941;DHT22;62001;53.366;6.636;2023-04-03T15:49:14;7.60;96.60
52941;DHT22;62001;53.366;6.636;2023-04-03T15:51:40;7.50;97.20
52941;DHT22;62001;53.366;6.636;2023-04-03T15:54:06;7.50;97.40
52941;DHT22;62001;53.366;6.636;2023-04-03T15:56:32;7.40;96.70
52941;DHT22;62001;53.366;6.636;2023-04-03T15:58:58;7.50;97.10
52941;DHT22;62001;53.366;6.636;2023-04-03T16:01:24;7.40;96.40
52941;DHT22;62001;53.366;6.636;2023-04-03T16:03:50;7.40;96.90
52941;DHT22;62001;53.366;6.636;2023-04-03T16:06:18;7.30;98.30
52941;DHT22;62001;53.366;6.636;2023-04-03T16:08:46;7.30;97.50
52941;DHT22;62001;53.366;6.636;2023-04-03T16:11:13;7.30;98.50
52941;DHT22;62001;53.366;6.636;2023-04-03T16:13:41;7.30;98.40
52941;DHT22;62001;53.366;6.636;2023-04-03T16:16:11;7.30;98.60
52941;DHT22;62001;53.366;6.636;2023-04-03T16:18:42;7.20;99.30
52941;DHT22;62001;53.366;6.636;2023-04-03T16:21:10;7.10;99.50
52941;DHT22;62001;53.366;6.636;2023-04-03T16:23:36;6.90;99.90
52941;DHT22;62001;53.366;6.636;2023-04-03T16:26:01;6.90;99.90
52941;DHT22;62001;53.366;6.636;2023-04-03T16:28:29;6.80;99.90
52941;DHT22;62001;53.366;6.636;2023-04-03T16:30:59;6.80;99.90
52941;DHT22;62001;53.366;6.636;2023-04-03T16:33:29;6.70;99.90
52941;DHT22;62001;53.366;6.636;2023-04-03T16:35:57;6.70;99.90
52941;DHT22;62001;53.366;6.636;2023-04-03T16:38:25;6.70;99.90
52941;DHT22;62001;53.366;6.636;2023-04-03T16:40:51;6.60;99.90
52941;DHT22;62001;53.366;6.636;2023-04-03T16:43:21;6.60;99.90
52941;DHT22;62001;53.366;6.636;2023-04-03T16:45:47;6.60;99.90
52941;DHT22;62001;53.366;6.636;2023-04-03T16:48:13;6.50;99.90
52941;DHT22;62001;53.366;6.636;2023-04-03T16:50:40;6.40;99.90
52941;DHT22;62001;53.366;6.636;2023-04-03T16:53:06;6.40;99.90
52941;DHT22;62001;53.366;6.636;2023-04-03T16:55:35;6.40;99.90
52941;DHT22;62001;53.366;6.636;2023-04-03T16:58:01;6.30;99.90
52941;DHT22;62001;53.366;6.636;2023-04-03T17:00:32;6.20;99.90
52941;DHT22;62001;53.366;6.636;2023-04-03T17:02:59;6.20;99.90
52941;DHT22;62001;53.366;6.636;2023-04-03T17:05:25;6.10;99.90
52941;DHT22;62001;53.366;6.636;2023-04-03T17:07:51;6.00;99.90
52941;DHT22;62001;53.366;6.636;2023-04-03T17:10:17;5.90;99.90
52941;DHT22;62001;53.366;6.636;2023-04-03T17:12:43;5.80;99.90
52941;DHT22;62001;53.366;6.636;2023-04-03T17:15:09;5.70;99.90
52941;DHT22;62001;53.366;6.636;2023-04-03T17:17:35;5.60;99.90
52941;DHT22;62001;53.366;6.636;2023-04-03T17:20:01;5.60;99.90
52941;DHT22;62001;53.366;6.636;2023-04-03T17:22:28;5.50;99.90
52941;DHT22;62001;53.366;6.636;2023-04-03T17:24:55;5.40;99.90
52941;DHT22;62001;53.366;6.636;2023-04-03T17:27:22;5.30;99.90
52941;DHT22;62001;53.366;6.636;2023-04-03T17:29:49;5.20;99.90
52941;DHT22;62001;53.366;6.636;2023-04-03T17:32:19;5.10;99.90
52941;DHT22;62001;53.366;6.636;2023-04-03T17:34:46;5.10;99.90
52941;DHT22;62001;53.366;6.636;2023-04-03T17:37:12;5.00;99.90
52941;DHT22;62001;53.366;6.636;2023-04-03T17:39:38;5.00;99.90
52941;DHT22;62001;53.366;6.636;2023-04-03T17:42:04;4.90;99.90
52941;DHT22;62001;53.366;6.636;2023-04-03T17:44:30;4.80;99.90
52941;DHT22;62001;53.366;6.636;2023-04-03T17:46:56;4.80;99.90
52941;DHT22;62001;53.366;6.636;2023-04-03T17:49:22;4.60;99.90
52941;DHT22;62001;53.366;6.636;2023-04-03T17:51:48;4.50;99.90
52941;DHT22;62001;53.366;6.636;2023-04-03T17:54:14;4.40;99.90
52941;DHT22;62001;53.366;6.636;2023-04-03T17:56:40;4.40;99.90